createdAt,value
2022-09-04T00:00:14.052Z,96543.50
2022-09-04T00:03:18.721Z,96552.47
2022-09-04T00:05:51.903Z,96497.88
2022-09-04T00:08:39.767Z,96562.69
2022-09-04T00:11:16.777Z,96532.94
2022-09-04T00:13:49.786Z,96569.63
2022-09-04T00:16:23.208Z,96571.63
2022-09-04T00:18:59.656Z,96539.88
2022-09-04T00:21:35.882Z,96549.91
2022-09-04T00:24:07.973Z,96559.22
2022-09-04T00:26:48.884Z,96558.22
2022-09-04T00:29:28.635Z,96523.81
2022-09-04T00:32:03.510Z,96496.91
2022-09-04T00:34:52.548Z,96571.72
2022-09-04T00:37:27.458Z,96564.59
2022-09-04T00:43:28.130Z,96549.28
2022-09-04T00:46:19.479Z,96540.47
2022-09-04T00:49:36.521Z,96593.31
2022-09-04T00:52:21.285Z,96544.75
2022-09-04T00:55:17.742Z,96583.47
2022-09-04T00:58:10.794Z,96552.84
2022-09-04T01:00:40.324Z,96486.16
2022-09-04T01:03:36.436Z,96571.66
2022-09-04T01:06:30.550Z,96586.97
2022-09-04T01:09:38.791Z,96587.69
2022-09-04T01:12:20.890Z,96583.13
2022-09-04T01:14:57.178Z,96450.09
2022-09-04T01:17:33.188Z,96559.63
2022-09-04T01:20:13.364Z,96612.66
2022-09-04T01:23:13.503Z,96563.44
2022-09-04T01:26:09.086Z,96582.56
2022-09-04T01:28:51.581Z,96530.28
2022-09-04T01:31:28.184Z,96604.16
2022-09-04T01:34:14.480Z,96559.16
2022-09-04T01:36:50.646Z,96569.72
2022-09-04T01:39:22.597Z,96638.81
2022-09-04T01:42:00.963Z,96453.50
2022-09-04T01:44:31.038Z,96549.78
2022-09-04T01:47:11.815Z,96563.28
2022-09-04T01:49:45.561Z,96558.00
2022-09-04T01:52:37.849Z,96719.84
2022-09-04T01:55:20.167Z,96590.41
2022-09-04T01:58:05.374Z,96589.19
2022-09-04T02:00:39.743Z,96608.19
2022-09-04T02:03:22.126Z,96600.44
2022-09-04T02:06:03.827Z,96546.59
2022-09-04T02:08:50.862Z,96611.66
2022-09-04T02:11:27.813Z,96581.00
2022-09-04T02:14:17.827Z,96578.41
2022-09-04T02:17:08.532Z,96616.38
2022-09-04T02:19:54.522Z,96572.88
2022-09-04T02:22:31.986Z,96591.00
2022-09-04T02:25:07.554Z,96557.63
2022-09-04T02:27:46.926Z,96617.38
2022-09-04T02:30:19.557Z,96577.69
2022-09-04T02:32:57.866Z,96618.22
2022-09-04T02:35:36.780Z,96608.88
2022-09-04T02:38:18.407Z,96636.06
2022-09-04T02:40:53.268Z,96625.03
2022-09-04T02:43:48.767Z,96579.25
2022-09-04T02:46:28.975Z,96579.25
2022-09-04T02:49:10.078Z,96565.13
2022-09-04T02:51:55.795Z,96597.31
2022-09-04T02:54:43.454Z,96604.16
2022-09-04T02:57:27.355Z,96628.13
2022-09-04T03:00:08.286Z,96629.66
2022-09-04T03:02:46.482Z,96607.50
2022-09-04T03:05:22.525Z,96613.94
2022-09-04T03:07:59.933Z,96610.00
2022-09-04T03:10:35.063Z,96573.19
2022-09-04T03:13:09.968Z,96615.66
2022-09-04T03:15:45.306Z,96639.19
2022-09-04T03:18:30.166Z,96650.56
2022-09-04T03:21:06.385Z,96582.41
2022-09-04T03:23:44.442Z,96670.59
2022-09-04T03:26:22.762Z,96639.59
2022-09-04T03:29:02.289Z,96618.72
2022-09-04T03:31:37.384Z,96615.53
2022-09-04T03:34:30.797Z,96576.56
2022-09-04T03:37:22.534Z,96631.75
2022-09-04T03:40:05.551Z,96640.78
2022-09-04T03:42:49.254Z,96670.66
2022-09-04T03:45:29.232Z,96609.59
2022-09-04T03:48:16.717Z,96636.50
2022-09-04T03:50:54.349Z,96634.81
2022-09-04T03:53:33.605Z,96645.38
2022-09-04T03:56:30.327Z,96673.41
2022-09-04T03:59:05.547Z,96630.13
2022-09-04T04:01:48.527Z,96643.50
2022-09-04T04:04:48.085Z,96647.25
2022-09-04T04:07:30.349Z,96661.34
2022-09-04T04:10:15.197Z,96668.69
2022-09-04T04:13:05.393Z,96759.66
2022-09-04T04:15:52.323Z,96703.91
2022-09-04T04:18:39.624Z,96619.03
2022-09-04T04:21:16.507Z,96675.31
2022-09-04T04:24:05.283Z,96633.38
2022-09-04T04:26:54.904Z,96641.47
2022-09-04T04:30:08.102Z,96681.75
2022-09-04T04:33:19.439Z,96707.00
2022-09-04T04:35:58.372Z,96643.06
2022-09-04T04:38:46.188Z,96646.78
2022-09-04T04:41:54.459Z,96671.81
2022-09-04T04:44:53.423Z,96675.44
2022-09-04T04:47:41.181Z,96695.88
2022-09-04T04:50:17.414Z,96661.94
2022-09-04T04:53:01.763Z,96692.56
2022-09-04T04:55:40.752Z,96647.31
2022-09-04T04:58:38.106Z,96653.50
2022-09-04T05:01:16.025Z,96714.63
2022-09-04T05:04:05.102Z,96729.00
2022-09-04T05:06:42.421Z,96721.06
2022-09-04T05:09:21.271Z,96740.72
2022-09-04T05:11:57.937Z,96721.91
2022-09-04T05:14:39.065Z,96726.03
2022-09-04T05:17:19.664Z,96710.38
2022-09-04T05:20:10.995Z,96730.84
2022-09-04T05:22:45.348Z,96722.25
2022-09-04T05:25:22.503Z,96725.19
2022-09-04T05:28:02.949Z,96691.53
2022-09-04T05:30:44.116Z,96713.09
2022-09-04T05:33:23.646Z,96731.78
2022-09-04T05:36:01.099Z,96747.22
2022-09-04T05:38:37.267Z,96752.50
2022-09-04T05:41:08.683Z,96763.00
2022-09-04T05:44:02.014Z,96776.53
2022-09-04T05:46:51.798Z,96774.94
2022-09-04T05:49:42.679Z,96774.78
2022-09-04T05:52:48.960Z,96720.00
2022-09-04T05:55:43.671Z,96791.72
2022-09-04T05:58:35.228Z,96770.53
2022-09-04T06:01:20.583Z,96800.06
2022-09-04T06:04:24.682Z,96731.56
2022-09-04T06:07:04.741Z,96743.75
2022-09-04T06:09:54.895Z,96821.00
2022-09-04T06:13:08.295Z,96733.19
2022-09-04T06:15:44.764Z,96771.19
2022-09-04T06:18:36.162Z,96769.19
2022-09-04T06:21:55.257Z,96773.63
2022-09-04T06:24:39.661Z,96772.06
2022-09-04T06:27:35.526Z,96727.09
2022-09-04T06:30:08.785Z,96768.84
2022-09-04T06:33:04.124Z,96756.84
2022-09-04T06:36:05.641Z,96814.81
2022-09-04T06:38:50.891Z,96791.75
2022-09-04T06:41:55.558Z,96800.97
2022-09-04T06:44:41.233Z,96832.47
2022-09-04T06:47:25.526Z,96825.28
2022-09-04T06:50:13.769Z,96834.50
2022-09-04T06:53:00.007Z,96828.47
2022-09-04T06:55:42.563Z,96832.19
2022-09-04T06:58:45.678Z,96818.44
2022-09-04T07:01:21.097Z,96787.97
2022-09-04T07:04:07.359Z,96826.03
2022-09-04T07:07:00.251Z,96841.16
2022-09-04T07:09:34.727Z,96822.41
2022-09-04T07:12:36.282Z,96809.91
2022-09-04T07:15:44.717Z,96871.69
2022-09-04T07:18:32.951Z,96811.22
2022-09-04T07:21:11.079Z,96862.44
2022-09-04T07:23:50.085Z,96807.28
2022-09-04T07:26:28.347Z,96858.28
2022-09-04T07:29:16.140Z,96816.50
2022-09-04T07:31:51.713Z,96877.78
2022-09-04T07:34:27.830Z,96839.97
2022-09-04T07:37:04.175Z,96838.31
2022-09-04T07:39:39.117Z,96799.81
2022-09-04T07:42:15.066Z,96835.91
2022-09-04T07:44:59.728Z,96828.28
2022-09-04T07:47:38.010Z,96831.38
2022-09-04T07:50:13.791Z,96835.03
2022-09-04T07:53:07.325Z,96848.19
2022-09-04T07:55:42.181Z,96885.06
2022-09-04T07:58:49.419Z,96827.34
2022-09-04T08:01:40.485Z,96877.97
2022-09-04T08:04:33.161Z,96908.19
2022-09-04T08:07:11.294Z,96731.75
2022-09-04T08:10:05.475Z,96847.25
2022-09-04T08:13:09.872Z,96864.63
2022-09-04T08:15:46.463Z,96837.72
2022-09-04T08:18:43.165Z,96608.19
2022-09-04T08:21:23.474Z,96864.69
2022-09-04T08:24:29.273Z,96891.72
2022-09-04T08:27:11.166Z,96845.63
2022-09-04T08:29:54.834Z,96854.94
2022-09-04T08:32:46.842Z,96736.72
2022-09-04T08:35:25.747Z,96887.31
2022-09-04T08:38:27.812Z,96886.88
2022-09-04T08:41:34.542Z,96895.75
2022-09-04T08:45:08.090Z,96904.16
2022-09-04T08:48:21.080Z,96867.38
2022-09-04T08:51:34.193Z,96903.94
2022-09-04T08:54:37.602Z,96841.28
2022-09-04T08:57:58.359Z,96844.47
2022-09-04T09:00:44.683Z,96860.56
2022-09-04T09:03:42.266Z,96903.38
2022-09-04T09:06:57.380Z,96933.53
2022-09-04T09:10:03.606Z,96902.97
2022-09-04T09:13:19.287Z,96864.75
2022-09-04T09:16:07.397Z,96795.34
2022-09-04T09:18:40.573Z,96805.91
2022-09-04T09:21:13.638Z,96866.03
2022-09-04T09:24:10.887Z,96874.63
2022-09-04T09:26:51.084Z,96878.22
2022-09-04T09:30:06.196Z,96844.41
2022-09-04T09:33:20.543Z,96875.22
2022-09-04T09:36:46.587Z,96890.66
2022-09-04T09:39:58.833Z,96908.84
2022-09-04T09:43:01.139Z,96823.31
2022-09-04T09:46:19.688Z,96874.41
2022-09-04T09:49:43.154Z,96864.69
2022-09-04T09:53:14.359Z,96824.94
2022-09-04T09:56:21.728Z,96891.03
2022-09-04T09:59:38.049Z,96875.53
2022-09-04T10:02:54.737Z,96882.16
2022-09-04T10:06:14.093Z,96817.63
2022-09-04T10:09:29.438Z,96835.38
2022-09-04T10:12:41.442Z,96841.09
2022-09-04T10:15:48.371Z,96896.94
2022-09-04T10:19:07.047Z,96869.50
2022-09-04T10:22:36.766Z,96881.56
2022-09-04T10:25:44.398Z,96913.28
2022-09-04T10:28:47.406Z,96834.16
2022-09-04T10:31:56.989Z,96876.19
2022-09-04T10:35:20.851Z,96846.19
2022-09-04T10:38:26.717Z,96837.53
2022-09-04T10:41:39.178Z,96868.31
2022-09-04T10:44:51.513Z,96812.69
2022-09-04T10:47:45.044Z,96844.78
2022-09-04T10:50:28.772Z,96803.16
2022-09-04T10:53:51.402Z,96788.16
2022-09-04T10:56:28.950Z,96836.63
2022-09-04T10:59:21.226Z,96831.56
2022-09-04T11:02:14.092Z,96894.31
2022-09-04T11:05:15.660Z,96850.84
2022-09-04T11:08:20.711Z,96854.88
2022-09-04T11:11:15.241Z,96861.75
2022-09-04T11:14:25.658Z,96921.72
2022-09-04T11:17:35.977Z,96906.41
2022-09-04T11:20:58.472Z,96844.22
2022-09-04T11:24:28.041Z,96831.34
2022-09-04T11:27:39.937Z,96877.69
2022-09-04T11:30:15.672Z,96903.16
2022-09-04T11:33:25.369Z,96890.41
2022-09-04T11:36:35.429Z,96915.38
2022-09-04T11:39:47.737Z,96896.16
2022-09-04T11:42:31.122Z,96821.78
2022-09-04T11:45:57.717Z,96863.34
2022-09-04T11:48:58.104Z,96754.84
2022-09-04T11:52:05.034Z,96847.47
2022-09-04T11:55:16.896Z,96854.94
2022-09-04T11:58:17.541Z,96630.09
2022-09-04T12:00:58.432Z,96865.34
2022-09-04T12:04:00.811Z,96866.19
2022-09-04T12:06:51.149Z,96912.47
2022-09-04T12:09:52.751Z,96894.59
2022-09-04T12:12:57.919Z,96898.28
2022-09-04T12:15:55.717Z,96851.88
2022-09-04T12:18:59.820Z,96802.22
2022-09-04T12:21:53.057Z,96845.66
2022-09-04T12:24:46.273Z,96892.50
2022-09-04T12:27:48.073Z,96874.56
2022-09-04T12:30:23.652Z,96897.81
2022-09-04T12:33:24.904Z,96904.66
2022-09-04T12:36:37.274Z,96900.34
2022-09-04T12:39:55.184Z,96862.38
2022-09-04T12:42:30.133Z,96835.44
2022-09-04T12:45:13.939Z,96739.69
2022-09-04T12:47:57.208Z,96843.69
2022-09-04T12:50:34.508Z,96752.66
2022-09-04T12:53:52.465Z,96837.78
2022-09-04T12:56:43.930Z,96819.16
2022-09-04T12:59:36.889Z,96861.34
2022-09-04T13:02:16.446Z,96859.63
2022-09-04T13:04:55.732Z,96841.78
2022-09-04T13:07:44.407Z,96838.91
2022-09-04T13:10:26.975Z,96867.63
2022-09-04T13:13:08.135Z,96862.09
2022-09-04T13:15:48.546Z,96834.47
2022-09-04T13:18:34.993Z,96870.25
2022-09-04T13:21:15.874Z,96888.63
2022-09-04T13:24:06.600Z,96861.34
2022-09-04T13:27:04.639Z,96864.28
2022-09-04T13:29:51.493Z,96863.28
2022-09-04T13:32:46.436Z,96820.75
2022-09-04T13:35:25.475Z,96773.66
2022-09-04T13:38:27.554Z,96865.31
2022-09-04T13:41:30.914Z,96918.31
2022-09-04T13:44:25.754Z,96893.66
2022-09-04T13:47:05.789Z,96875.78
2022-09-04T13:49:40.064Z,96895.75
2022-09-04T13:52:16.122Z,96859.28
2022-09-04T13:54:52.687Z,96874.09
2022-09-04T13:57:25.937Z,96843.41
2022-09-04T13:59:59.249Z,96871.06
2022-09-04T14:02:31.859Z,96854.47
2022-09-04T14:05:17.168Z,96839.63
2022-09-04T14:07:50.427Z,96872.53
2022-09-04T14:10:23.473Z,96862.31
2022-09-04T14:13:15.533Z,96856.88
2022-09-04T14:16:04.363Z,96889.91
2022-09-04T14:19:03.449Z,96845.22
2022-09-04T14:21:49.558Z,96837.47
2022-09-04T14:24:25.604Z,96847.06
2022-09-04T14:27:07.015Z,96869.81
2022-09-04T14:29:48.291Z,96857.00
2022-09-04T14:32:25.366Z,96862.66
2022-09-04T14:35:03.935Z,96782.34
2022-09-04T14:38:02.513Z,96881.84
2022-09-04T14:40:34.617Z,96910.13
2022-09-04T14:43:13.285Z,96846.59
2022-09-04T14:46:04.792Z,96872.84
2022-09-04T14:48:40.439Z,96922.94
2022-09-04T14:51:18.610Z,96858.25
2022-09-04T14:53:50.138Z,96895.19
2022-09-04T14:56:30.770Z,96900.09
2022-09-04T14:59:08.667Z,96857.19
2022-09-04T15:01:56.919Z,96830.13
2022-09-04T15:04:33.692Z,96898.31
2022-09-04T15:07:49.529Z,96904.66
2022-09-04T15:10:25.879Z,96924.09
2022-09-04T15:13:23.573Z,96840.91
2022-09-04T15:15:56.502Z,96901.09
2022-09-04T15:18:31.442Z,96910.78
2022-09-04T15:21:05.052Z,96871.97
2022-09-04T15:23:42.530Z,96784.66
2022-09-04T15:26:19.914Z,96859.59
2022-09-04T15:28:52.599Z,96884.72
2022-09-04T15:31:30.603Z,96908.09
2022-09-04T15:34:03.886Z,96858.94
2022-09-04T15:36:32.817Z,96901.66
2022-09-04T15:39:06.096Z,96865.91
2022-09-04T15:41:42.098Z,96860.06
2022-09-04T15:44:20.499Z,96865.44
2022-09-04T15:47:02.897Z,96825.94
2022-09-04T15:49:44.969Z,96844.06
2022-09-04T15:52:33.355Z,96851.69
2022-09-04T15:55:10.882Z,96790.53
2022-09-04T15:57:56.043Z,96848.25
2022-09-04T16:00:27.328Z,96887.41
2022-09-04T16:03:06.972Z,96912.69
2022-09-04T16:05:45.087Z,96850.94
2022-09-04T16:08:23.492Z,96879.16
2022-09-04T16:10:59.787Z,96901.16
2022-09-04T16:13:46.548Z,96853.13
2022-09-04T16:16:22.045Z,96825.56
2022-09-04T16:19:03.232Z,96785.09
2022-09-04T16:21:44.480Z,96865.50
2022-09-04T16:24:17.999Z,96867.97
2022-09-04T16:26:52.051Z,96862.78
2022-09-04T16:29:36.682Z,96845.81
2022-09-04T16:32:09.715Z,96892.19
2022-09-04T16:34:47.964Z,96881.50
2022-09-04T16:37:23.081Z,96860.09
2022-09-04T16:40:04.981Z,96869.38
2022-09-04T16:42:42.896Z,96861.03
2022-09-04T16:45:18.233Z,96863.06
2022-09-04T16:47:54.481Z,96876.16
2022-09-04T16:50:28.449Z,96885.94
2022-09-04T16:53:14.455Z,96817.22
2022-09-04T16:55:53.761Z,96856.66
2022-09-04T16:58:40.112Z,96878.84
2022-09-04T17:01:17.284Z,96881.56
2022-09-04T17:04:12.569Z,96892.13
2022-09-04T17:07:00.094Z,96896.50
2022-09-04T17:09:47.773Z,96841.34
2022-09-04T17:12:26.293Z,96906.56
2022-09-04T17:15:03.164Z,96874.34
2022-09-04T17:17:33.987Z,96879.41
2022-09-04T17:20:06.451Z,96871.63
2022-09-04T17:28:54.266Z,96863.09
2022-09-04T17:29:19.054Z,96852.88
2022-09-04T17:29:29.518Z,96834.69
2022-09-04T17:31:51.218Z,96811.63
2022-09-04T17:40:35.700Z,96845.59
2022-09-04T17:40:56.290Z,96884.50
2022-09-04T17:41:40.285Z,96879.38
2022-09-04T17:43:59.699Z,96846.19
2022-09-04T17:46:39.017Z,96864.25
2022-09-04T17:49:15.219Z,96835.56
2022-09-04T17:51:51.613Z,96896.31
2022-09-04T17:54:30.399Z,96836.72
2022-09-04T17:57:02.880Z,96884.44
2022-09-04T17:59:38.980Z,96913.78
2022-09-04T18:02:20.909Z,96835.53
2022-09-04T18:04:57.166Z,96919.22
2022-09-04T18:08:07.979Z,96915.78
2022-09-04T18:10:28.359Z,96873.56
2022-09-04T18:13:08.835Z,96924.69
2022-09-04T18:16:07.395Z,96905.69
2022-09-04T18:18:43.815Z,96870.75
2022-09-04T18:21:22.731Z,96916.41
2022-09-04T18:24:01.728Z,96970.91
2022-09-04T18:26:41.500Z,96901.41
2022-09-04T18:32:43.225Z,96970.22
2022-09-04T18:37:18.980Z,96911.47
2022-09-04T18:37:25.136Z,96928.19
2022-09-04T18:39:09.202Z,96931.16
2022-09-04T18:48:19.160Z,96979.47
2022-09-04T18:50:28.302Z,96979.31
2022-09-04T18:50:37.224Z,96910.25
2022-09-04T18:51:18.136Z,96947.13
2022-09-04T18:53:43.781Z,96943.00
2022-09-04T18:56:20.838Z,96965.22
2022-09-04T18:58:59.353Z,96924.06
2022-09-04T19:01:38.049Z,96968.16
2022-09-04T19:04:38.524Z,96998.81
2022-09-04T19:07:12.527Z,96859.78
2022-09-04T19:10:04.417Z,96966.97
2022-09-04T19:12:47.444Z,96947.84
2022-09-04T19:15:36.729Z,96979.09
2022-09-04T19:18:16.451Z,96909.69
2022-09-04T19:20:51.382Z,96969.31
2022-09-04T19:23:30.374Z,96946.31
2022-09-04T19:26:08.905Z,96928.66
2022-09-04T19:28:52.455Z,96968.47
2022-09-04T19:31:33.044Z,97004.84
2022-09-04T19:35:17.360Z,97018.59
2022-09-04T19:41:36.815Z,97000.69
2022-09-04T19:46:04.063Z,96953.09
2022-09-04T19:46:15.504Z,96929.47
2022-09-04T19:46:58.119Z,96968.00
2022-09-04T19:52:28.254Z,96942.88
2022-09-04T19:53:34.224Z,96972.44
2022-09-04T19:55:41.748Z,96965.63
2022-09-04T19:58:12.906Z,96930.53
2022-09-04T20:00:48.936Z,96998.63
2022-09-04T20:03:29.746Z,96974.38
2022-09-04T20:06:21.654Z,96804.59
2022-09-04T20:08:57.031Z,96982.03
2022-09-04T20:11:35.869Z,96959.47
2022-09-04T20:14:14.887Z,96988.84
2022-09-04T20:17:02.380Z,96956.81
2022-09-04T20:19:41.128Z,96982.69
2022-09-04T20:22:28.330Z,96947.41
2022-09-04T20:25:32.623Z,96995.81
2022-09-04T20:28:23.056Z,96883.63
2022-09-04T20:31:33.295Z,96992.56
2022-09-04T20:34:16.969Z,96961.75
2022-09-04T20:36:51.554Z,96936.94
2022-09-04T20:39:27.354Z,96942.91
2022-09-04T20:42:00.883Z,96987.63
2022-09-04T20:44:44.469Z,97056.44
2022-09-04T20:52:50.005Z,96984.63
2022-09-04T20:52:50.799Z,97003.31
2022-09-04T20:53:31.654Z,96983.19
2022-09-04T20:56:36.114Z,96998.56
2022-09-04T21:03:05.228Z,97000.19
2022-09-04T21:03:10.761Z,96946.91
2022-09-04T21:05:59.900Z,96963.69
2022-09-04T21:08:41.312Z,97048.53
2022-09-04T21:11:19.149Z,96962.84
2022-09-04T21:14:07.013Z,96950.13
2022-09-04T21:16:49.705Z,96981.19
2022-09-04T21:19:57.338Z,96946.34
2022-09-04T21:22:50.854Z,96997.44
2022-09-04T21:25:31.548Z,96978.56
2022-09-04T21:28:41.735Z,97026.91
2022-09-04T21:31:25.024Z,96972.66
2022-09-04T21:34:15.619Z,96986.91
2022-09-04T21:36:55.226Z,96965.09
2022-09-04T21:40:34.041Z,97030.25
2022-09-04T21:43:35.633Z,97034.47
2022-09-04T21:46:32.478Z,97025.38
2022-09-04T21:49:52.731Z,96986.25
2022-09-04T21:53:08.435Z,96990.09
2022-09-04T21:58:10.140Z,96969.34
2022-09-04T22:02:37.030Z,96984.28
2022-09-04T22:02:46.281Z,97053.38
2022-09-04T22:05:12.171Z,97002.81
2022-09-04T22:12:25.840Z,96985.19
2022-09-04T22:13:41.410Z,96995.44
2022-09-04T22:14:03.281Z,97018.19
2022-09-04T22:16:59.089Z,97028.34
2022-09-04T22:20:03.139Z,97017.41
2022-09-04T22:23:18.465Z,97004.06
2022-09-04T22:26:14.853Z,97000.69
2022-09-04T22:29:16.163Z,96978.84
2022-09-04T22:32:29.539Z,97019.28
2022-09-04T22:35:43.455Z,97009.00
2022-09-04T22:38:35.319Z,96972.09
2022-09-04T22:41:42.846Z,97035.47
2022-09-04T22:44:29.412Z,97015.97
2022-09-04T22:47:31.182Z,97005.69
2022-09-04T22:50:49.540Z,97044.59
2022-09-04T22:54:16.924Z,97037.72
2022-09-04T22:56:54.911Z,97017.75
2022-09-04T22:59:51.871Z,97033.69
2022-09-04T23:07:43.732Z,97002.56
2022-09-04T23:13:43.649Z,97010.81
2022-09-04T23:13:57.220Z,96971.44
2022-09-04T23:16:07.010Z,97019.97
2022-09-04T23:21:56.386Z,96887.47
2022-09-04T23:26:41.496Z,96965.84
2022-09-04T23:26:45.677Z,97030.41
2022-09-04T23:28:27.585Z,96978.16
2022-09-04T23:31:19.963Z,97044.56
2022-09-04T23:34:30.004Z,97045.13
2022-09-04T23:37:24.607Z,97027.97
2022-09-04T23:40:27.439Z,97027.84
2022-09-04T23:43:49.747Z,97050.72
2022-09-04T23:46:42.753Z,97017.97
2022-09-04T23:49:45.933Z,97049.53
2022-09-04T23:52:26.615Z,97026.47
2022-09-04T23:55:10.465Z,97050.16
2022-09-04T23:57:50.591Z,97023.56
